createdAt,value
2019-05-16T00:00:28.934Z,99752.78
2019-05-16T00:03:02.429Z,99746.67
2019-05-16T00:05:30.191Z,99739.27
2019-05-16T00:07:58.981Z,99739.27
2019-05-16T00:10:28.175Z,99733.85
2019-05-16T00:13:01.489Z,99734.49
2019-05-16T00:15:29.272Z,99725.80
2019-05-16T00:17:58.377Z,99727.77
2019-05-16T00:20:30.770Z,99718.73
2019-05-16T00:23:03.628Z,99719.54
2019-05-16T00:25:31.762Z,99720.55
2019-05-16T00:27:59.577Z,99717.40
2019-05-16T00:30:28.777Z,99718.55
2019-05-16T00:32:58.787Z,99718.41
2019-05-16T00:35:28.889Z,99711.98
2019-05-16T00:37:59.007Z,99717.41
2019-05-16T00:40:27.879Z,99711.01
2019-05-16T00:42:58.624Z,99702.45
2019-05-16T00:45:25.853Z,99697.69
2019-05-16T00:47:53.665Z,99698.66
2019-05-16T00:50:21.424Z,99694.55
2019-05-16T00:52:49.433Z,99694.55
2019-05-16T00:55:17.947Z,99697.70
2019-05-16T00:57:48.141Z,99700.48
2019-05-16T01:00:28.506Z,99695.38
2019-05-16T01:02:57.829Z,99695.41
2019-05-16T01:05:28.304Z,99694.75
2019-05-16T01:07:55.452Z,99697.03
2019-05-16T01:10:23.220Z,99683.06
2019-05-16T01:12:51.152Z,99686.02
2019-05-16T01:15:18.958Z,99687.02
2019-05-16T01:17:48.389Z,99693.89
2019-05-16T01:20:18.961Z,99688.80
2019-05-16T01:23:41.033Z,99686.02
2019-05-16T01:26:08.851Z,99685.19
2019-05-16T01:28:37.782Z,99683.07
2019-05-16T01:31:08.412Z,99678.13
2019-05-16T01:33:35.590Z,99674.67
2019-05-16T01:36:03.416Z,99666.63
2019-05-16T01:38:31.259Z,99666.61
2019-05-16T01:40:59.024Z,99660.70
2019-05-16T01:43:28.402Z,99656.94
2019-05-16T01:45:57.806Z,99652.16
2019-05-16T01:48:25.932Z,99651.17
2019-05-16T01:50:53.689Z,99647.70
2019-05-16T01:53:21.556Z,99646.72
2019-05-16T01:55:49.337Z,99646.89
2019-05-16T01:58:19.758Z,99639.17
2019-05-16T02:00:58.925Z,99640.66
2019-05-16T02:03:18.917Z,99642.13
2019-05-16T02:05:48.093Z,99638.50
2019-05-16T02:08:18.126Z,99636.88
2019-05-16T02:10:47.674Z,99632.44
2019-05-16T02:13:23.234Z,99632.77
2019-05-16T02:15:50.786Z,99630.12
2019-05-16T02:18:18.694Z,99630.63
2019-05-16T02:20:47.958Z,99627.16
2019-05-16T02:23:18.938Z,99625.67
2019-05-16T02:25:48.958Z,99617.30
2019-05-16T02:28:21.068Z,99616.47
2019-05-16T02:30:51.538Z,99615.98
2019-05-16T02:33:21.280Z,99604.48
2019-05-16T02:35:55.398Z,99602.66
2019-05-16T02:38:23.073Z,99603.81
2019-05-16T02:40:54.925Z,99604.32
2019-05-16T02:43:26.417Z,99600.38
2019-05-16T02:45:52.409Z,99596.58
2019-05-16T02:48:22.055Z,99603.16
2019-05-16T02:50:51.245Z,99599.37
2019-05-16T02:53:22.309Z,99601.18
2019-05-16T02:55:51.644Z,99601.84
2019-05-16T02:58:23.313Z,99604.13
2019-05-16T03:00:51.569Z,99599.19
2019-05-16T03:03:21.427Z,99596.23
2019-05-16T03:05:50.757Z,99589.67
2019-05-16T03:08:21.542Z,99587.86
2019-05-16T03:10:51.985Z,99585.41
2019-05-16T03:13:30.880Z,99579.12
2019-05-16T03:16:02.314Z,99579.92
2019-05-16T03:18:31.190Z,99579.26
2019-05-16T03:21:00.941Z,99588.13
2019-05-16T03:23:33.778Z,99584.83
2019-05-16T03:26:21.190Z,99591.38
2019-05-16T03:28:52.049Z,99587.77
2019-05-16T03:31:23.866Z,99585.62
2019-05-16T03:33:51.949Z,99580.38
2019-05-16T03:36:24.354Z,99579.55
2019-05-16T03:38:50.543Z,99577.25
2019-05-16T03:41:17.522Z,99574.33
2019-05-16T03:43:45.351Z,99575.63
2019-05-16T03:46:13.284Z,99570.70
2019-05-16T03:48:41.172Z,99570.56
2019-05-16T03:51:11.327Z,99572.70
2019-05-16T03:54:12.350Z,99572.56
2019-05-16T03:56:40.881Z,99567.82
2019-05-16T03:59:10.991Z,99564.87
2019-05-16T04:01:40.894Z,99566.52
2019-05-16T04:04:11.350Z,99563.55
2019-05-16T04:06:41.383Z,99564.70
2019-05-16T04:09:08.143Z,99555.53
2019-05-16T04:11:35.935Z,99554.71
2019-05-16T04:14:04.054Z,99554.20
2019-05-16T04:16:31.837Z,99551.59
2019-05-16T04:19:01.863Z,99551.77
2019-05-16T04:21:32.340Z,99554.23
2019-05-16T04:24:01.249Z,99547.81
2019-05-16T04:26:30.875Z,99548.00
2019-05-16T04:29:00.794Z,99551.27
2019-05-16T04:31:30.886Z,99547.80
2019-05-16T04:34:00.874Z,99552.92
2019-05-16T04:36:27.581Z,99548.97
2019-05-16T04:38:55.332Z,99539.75
2019-05-16T04:41:23.127Z,99543.36
2019-05-16T04:43:51.129Z,99543.17
2019-05-16T04:46:21.381Z,99544.81
2019-05-16T04:48:50.753Z,99546.59
2019-05-16T04:51:21.607Z,99541.94
2019-05-16T04:53:50.865Z,99547.30
2019-05-16T04:56:17.912Z,99543.63
2019-05-16T04:58:46.726Z,99537.34
2019-05-16T05:01:14.536Z,99536.02
2019-05-16T05:03:59.686Z,99533.05
2019-05-16T05:06:14.563Z,99530.20
2019-05-16T05:08:54.510Z,99535.32
2019-05-16T05:11:12.299Z,99531.80
2019-05-16T05:13:41.255Z,99527.95
2019-05-16T05:16:10.670Z,99527.50
2019-05-16T05:18:40.924Z,99527.72
2019-05-16T05:21:11.405Z,99524.69
2019-05-16T05:23:40.523Z,99524.70
2019-05-16T05:26:07.845Z,99525.25
2019-05-16T05:28:40.179Z,99530.17
2019-05-16T05:31:10.635Z,99525.02
2019-05-16T05:33:41.368Z,99520.69
2019-05-16T05:36:12.029Z,99522.67
2019-05-16T05:38:37.336Z,99518.02
2019-05-16T05:41:05.220Z,99519.86
2019-05-16T05:43:32.997Z,99516.28
2019-05-16T05:46:00.985Z,99522.08
2019-05-16T05:48:30.824Z,99518.56
2019-05-16T05:51:00.196Z,99512.33
2019-05-16T05:53:30.120Z,99513.87
2019-05-16T05:56:00.354Z,99511.19
2019-05-16T05:58:30.658Z,99508.36
2019-05-16T06:01:00.423Z,99510.28
2019-05-16T06:03:27.425Z,99509.54
2019-05-16T06:05:55.208Z,99502.02
2019-05-16T06:08:23.002Z,99500.44
2019-05-16T06:10:50.858Z,99499.75
2019-05-16T06:13:20.549Z,99496.51
2019-05-16T06:15:50.622Z,99497.54
2019-05-16T06:18:19.853Z,99494.49
2019-05-16T06:20:47.750Z,99488.45
2019-05-16T06:23:20.778Z,99486.84
2019-05-16T06:25:50.510Z,99486.25
2019-05-16T06:28:20.830Z,99486.75
2019-05-16T06:30:47.645Z,99485.80
2019-05-16T06:33:15.536Z,99490.20
2019-05-16T06:35:43.619Z,99492.97
2019-05-16T06:38:11.396Z,99508.38
2019-05-16T06:40:40.189Z,99504.30
2019-05-16T06:43:08.193Z,99463.45
2019-05-16T06:45:36.620Z,99443.63
2019-05-16T06:48:04.445Z,99454.34
2019-05-16T06:50:33.261Z,99450.45
2019-05-16T06:53:06.688Z,99459.11
2019-05-16T06:55:34.527Z,99454.02
2019-05-16T06:58:02.226Z,99453.61
2019-05-16T07:00:30.273Z,99453.92
2019-05-16T07:03:00.286Z,99453.98
2019-05-16T07:05:29.850Z,99486.42
2019-05-16T07:07:59.719Z,99454.71
2019-05-16T07:10:27.184Z,99437.75
2019-05-16T07:12:55.467Z,99436.46
2019-05-16T07:15:23.301Z,99427.35
2019-05-16T07:17:51.086Z,99444.61
2019-05-16T07:20:20.998Z,99422.03
2019-05-16T07:22:50.341Z,99435.41
2019-05-16T07:25:20.898Z,99427.36
2019-05-16T07:27:51.126Z,99430.48
2019-05-16T07:30:19.931Z,99425.47
2019-05-16T07:32:50.039Z,99424.23
2019-05-16T07:35:17.792Z,99421.18
2019-05-16T07:37:46.255Z,99424.27
2019-05-16T07:40:19.669Z,99415.58
2019-05-16T07:42:44.108Z,99419.63
2019-05-16T07:45:15.548Z,99415.50
2019-05-16T07:47:45.175Z,99420.98
2019-05-16T07:50:13.343Z,99419.56
2019-05-16T07:52:41.167Z,99416.68
2019-05-16T07:55:10.784Z,99418.33
2019-05-16T07:57:39.870Z,99405.30
2019-05-16T08:00:09.723Z,99401.07
2019-05-16T08:02:40.390Z,99397.69
2019-05-16T08:05:10.286Z,99402.77
2019-05-16T08:07:40.708Z,99396.09
2019-05-16T08:10:10.560Z,99399.91
2019-05-16T08:15:11.500Z,99406.17
2019-05-16T08:17:41.389Z,99406.37
2019-05-16T08:20:10.949Z,99407.27
2019-05-16T08:22:41.280Z,99402.78
2019-05-16T08:25:11.020Z,99403.38
2019-05-16T08:27:41.534Z,99404.42
2019-05-16T08:35:11.302Z,99395.20
2019-05-16T08:37:46.618Z,99387.42
2019-05-16T08:40:11.554Z,99380.91
2019-05-16T08:42:41.706Z,99365.88
2019-05-16T08:45:12.787Z,99361.64
2019-05-16T08:47:42.319Z,99375.59
2019-05-16T08:50:11.102Z,99399.92
2019-05-16T08:50:14.242Z,99356.94
2019-05-16T08:52:43.451Z,99352.43
2019-05-16T08:55:12.605Z,99350.48
2019-05-16T08:57:41.025Z,99342.67
2019-05-16T09:00:14.458Z,99337.11
2019-05-16T09:03:05.617Z,99323.30
2019-05-16T09:05:33.560Z,99309.30
2019-05-16T09:08:01.459Z,99296.41
2019-05-16T09:10:31.458Z,99400.22
2019-05-16T09:10:41.404Z,99398.39
2019-05-16T09:10:57.978Z,99290.36
2019-05-16T09:12:59.553Z,99289.31
2019-05-16T09:15:27.525Z,99296.62
2019-05-16T09:17:57.909Z,99285.56
2019-05-16T09:20:27.747Z,99291.66
2019-05-16T09:22:57.535Z,99278.59
2019-05-16T09:25:27.273Z,99261.98
2019-05-16T09:27:56.786Z,99280.53
2019-05-16T09:30:24.023Z,99272.53
2019-05-16T09:32:51.973Z,99272.39
2019-05-16T09:35:19.954Z,99279.58
2019-05-16T09:37:47.724Z,99275.08
2019-05-16T09:40:17.522Z,99276.87
2019-05-16T09:42:47.359Z,99278.26
2019-05-16T09:45:17.041Z,99277.00
2019-05-16T09:47:48.177Z,99275.28
2019-05-16T09:50:17.314Z,99274.96
2019-05-16T09:52:47.135Z,99273.23
2019-05-16T09:55:17.374Z,99264.92
2019-05-16T09:57:46.842Z,99267.64
2019-05-16T10:00:17.926Z,99260.21
2019-05-16T10:02:48.807Z,99216.47
2019-05-16T10:05:19.356Z,99257.62
2019-05-16T10:07:47.400Z,99248.80
2019-05-16T10:10:17.084Z,99243.89
2019-05-16T10:12:45.001Z,99242.52
2019-05-16T10:15:14.256Z,99247.36
2019-05-16T10:17:43.434Z,99248.36
2019-05-16T10:20:12.041Z,99253.60
2019-05-16T10:22:40.923Z,99245.26
2019-05-16T10:25:08.778Z,99246.73
2019-05-16T10:27:36.824Z,99252.06
2019-05-16T10:30:08.415Z,99250.12
2019-05-16T10:32:36.460Z,99252.08
2019-05-16T10:35:06.026Z,99247.88
2019-05-16T10:37:33.862Z,99246.23
2019-05-16T10:40:01.697Z,99242.17
2019-05-16T10:42:29.509Z,99239.94
2019-05-16T10:44:57.819Z,99238.77
2019-05-16T10:47:28.700Z,99234.23
2019-05-16T10:49:56.436Z,99229.08
2019-05-16T10:52:26.407Z,99229.67
2019-05-16T10:54:59.208Z,99225.83
2019-05-16T10:57:24.054Z,99227.06
2019-05-16T11:00:06.563Z,99227.36
2019-05-16T11:02:22.643Z,99224.13
2019-05-16T11:05:00.085Z,99220.70
2019-05-16T11:07:20.342Z,99218.47
2019-05-16T11:09:58.602Z,99217.94
2019-05-16T11:12:20.480Z,99211.02
2019-05-16T11:14:50.306Z,99213.87
2019-05-16T11:17:19.070Z,99207.20
2019-05-16T11:19:46.987Z,99208.84
2019-05-16T11:22:14.917Z,99209.64
2019-05-16T11:24:47.092Z,99210.08
2019-05-16T11:27:14.848Z,99213.44
2019-05-16T11:29:42.707Z,99208.19
2019-05-16T11:32:10.469Z,99214.25
2019-05-16T11:34:39.038Z,99191.45
2019-05-16T11:37:07.127Z,99214.28
2019-05-16T11:39:36.907Z,99220.69
2019-05-16T11:42:04.761Z,99220.74
2019-05-16T11:44:32.596Z,99216.58
2019-05-16T11:47:00.393Z,99213.26
2019-05-16T11:49:28.209Z,99206.08
2019-05-16T11:51:57.854Z,99207.06
2019-05-16T11:54:26.583Z,99211.55
2019-05-16T11:56:54.457Z,99213.49
2019-05-16T11:59:22.275Z,99217.73
2019-05-16T12:01:50.028Z,99217.94
2019-05-16T12:04:17.861Z,99216.78
2019-05-16T12:06:46.861Z,99215.74
2019-05-16T12:09:17.598Z,99224.63
2019-05-16T12:11:46.116Z,99226.31
2019-05-16T12:14:16.454Z,99225.59
2019-05-16T12:16:43.640Z,99234.23
2019-05-16T12:19:11.436Z,99229.11
2019-05-16T12:21:39.203Z,99234.08
2019-05-16T12:24:07.546Z,99230.17
2019-05-16T12:26:37.261Z,99234.05
2019-05-16T12:29:06.956Z,99233.50
2019-05-16T12:31:37.393Z,99227.23
2019-05-16T12:34:04.657Z,99228.34
2019-05-16T12:36:33.192Z,99227.75
2019-05-16T12:39:00.980Z,99225.13
2019-05-16T12:41:28.862Z,99226.03
2019-05-16T12:43:57.860Z,99219.12
2019-05-16T12:46:27.203Z,99220.45
2019-05-16T12:48:57.142Z,99217.05
2019-05-16T12:51:26.470Z,99213.59
2019-05-16T12:53:57.009Z,99208.87
2019-05-16T12:56:26.906Z,99202.51
2019-05-16T12:58:54.052Z,99196.39
2019-05-16T13:01:29.547Z,99191.47
2019-05-16T13:03:51.527Z,99197.70
2019-05-16T13:06:19.588Z,99188.42
2019-05-16T13:08:47.488Z,99186.82
2019-05-16T13:11:17.687Z,99184.87
2019-05-16T13:14:01.352Z,99177.34
2019-05-16T13:16:16.694Z,99170.37
2019-05-16T13:18:47.357Z,99179.04
2019-05-16T13:21:14.768Z,99176.78
2019-05-16T13:23:42.570Z,99181.27
2019-05-16T13:26:10.428Z,99180.38
2019-05-16T13:28:38.250Z,99178.91
2019-05-16T13:31:07.715Z,99177.34
2019-05-16T13:33:40.959Z,99173.06
2019-05-16T13:36:08.809Z,99169.20
2019-05-16T13:38:36.545Z,99172.12
2019-05-16T13:41:07.147Z,99169.95
2019-05-16T13:43:34.239Z,99166.16
2019-05-16T13:46:02.088Z,99166.52
2019-05-16T13:48:29.880Z,99160.84
2019-05-16T13:51:10.661Z,99156.69
2019-05-16T13:53:27.433Z,99151.95
2019-05-16T13:55:55.339Z,99147.28
2019-05-16T13:58:23.180Z,99147.75
2019-05-16T14:00:50.943Z,99147.09
2019-05-16T14:03:19.182Z,99142.71
2019-05-16T14:05:47.815Z,99148.44
2019-05-16T14:08:17.042Z,99144.66
2019-05-16T14:10:48.683Z,99145.69
2019-05-16T14:13:46.924Z,99141.24
2019-05-16T14:16:17.796Z,99141.00
2019-05-16T14:18:46.842Z,99133.47
2019-05-16T14:21:17.906Z,99138.39
2019-05-16T14:23:44.394Z,99138.09
2019-05-16T14:26:12.319Z,99136.06
2019-05-16T14:28:40.154Z,99136.14
2019-05-16T14:31:11.135Z,99135.71
2019-05-16T14:33:38.941Z,99128.50
2019-05-16T14:36:07.519Z,99129.34
2019-05-16T14:38:37.436Z,99131.13
2019-05-16T14:41:24.868Z,99128.42
2019-05-16T14:43:54.531Z,99126.41
2019-05-16T14:46:28.651Z,99128.34
2019-05-16T14:48:58.529Z,99125.05
2019-05-16T14:51:31.775Z,99127.99
2019-05-16T14:53:59.167Z,99126.40
2019-05-16T14:56:27.625Z,99119.78
2019-05-16T14:58:57.611Z,99123.95
2019-05-16T15:01:26.688Z,99112.73
2019-05-16T15:03:56.531Z,99113.43
2019-05-16T15:06:24.442Z,99110.20
2019-05-16T15:08:52.295Z,99109.81
2019-05-16T15:11:20.169Z,99111.06
2019-05-16T15:13:48.060Z,99115.30
2019-05-16T15:16:16.980Z,99117.20
2019-05-16T15:18:47.984Z,99112.11
2019-05-16T15:21:17.624Z,99114.55
2019-05-16T15:23:45.502Z,99113.28
2019-05-16T15:26:13.353Z,99114.81
2019-05-16T15:28:41.190Z,99088.88
2019-05-16T15:31:09.073Z,99116.32
2019-05-16T15:33:37.390Z,99114.33
2019-05-16T15:36:08.230Z,99111.84
2019-05-16T15:38:36.542Z,99107.70
2019-05-16T15:41:07.906Z,99104.22
2019-05-16T15:43:36.847Z,99107.10
2019-05-16T15:46:07.674Z,99099.94
2019-05-16T15:48:37.099Z,99097.98
2019-05-16T15:51:08.239Z,99095.41
2019-05-16T15:53:36.281Z,99098.91
2019-05-16T15:56:09.601Z,99097.98
2019-05-16T15:58:37.335Z,99098.50
2019-05-16T16:01:06.941Z,99097.70
2019-05-16T16:03:37.922Z,99098.14
2019-05-16T16:06:06.864Z,99096.16
2019-05-16T16:08:37.140Z,99095.53
2019-05-16T16:11:07.060Z,99098.98
2019-05-16T16:13:37.148Z,99092.17
2019-05-16T16:16:09.152Z,99091.80
2019-05-16T16:18:34.093Z,99088.83
2019-05-16T16:21:01.900Z,99086.47
2019-05-16T16:23:30.009Z,99086.13
2019-05-16T16:25:59.482Z,99083.41
2019-05-16T16:28:27.570Z,99085.59
2019-05-16T16:30:56.962Z,99082.76
2019-05-16T16:33:29.075Z,99086.41
2019-05-16T16:35:57.102Z,99084.38
2019-05-16T16:38:24.527Z,99086.80
2019-05-16T16:40:52.420Z,99091.53
2019-05-16T16:43:24.153Z,99084.92
2019-05-16T16:46:04.330Z,99085.64
2019-05-16T16:48:21.742Z,99089.61
2019-05-16T16:50:49.514Z,99088.41
2019-05-16T16:53:22.551Z,99090.28
2019-05-16T16:55:50.371Z,99091.93
2019-05-16T16:58:19.696Z,99096.30
2019-05-16T17:00:47.932Z,99093.79
2019-05-16T17:03:16.745Z,99095.66
2019-05-16T17:05:46.521Z,99090.23
2019-05-16T17:08:16.583Z,99099.78
2019-05-16T17:10:44.034Z,99097.08
2019-05-16T17:13:11.933Z,99092.38
2019-05-16T17:15:42.273Z,99097.14
2019-05-16T17:18:10.170Z,99093.00
2019-05-16T17:20:38.775Z,99092.92
2019-05-16T17:23:09.020Z,99091.45
2019-05-16T17:25:37.493Z,99092.47
2019-05-16T17:28:07.104Z,99089.98
2019-05-16T17:30:36.828Z,99092.06
2019-05-16T17:33:07.683Z,99085.64
2019-05-16T17:35:38.561Z,99090.05
2019-05-16T17:38:06.868Z,99089.98
2019-05-16T17:40:38.102Z,99087.88
2019-05-16T17:43:07.331Z,99091.66
2019-05-16T17:45:37.643Z,99091.78
2019-05-16T17:48:06.724Z,99067.45
2019-05-16T17:50:37.090Z,99089.41
2019-05-16T17:53:06.844Z,99091.80
2019-05-16T17:55:36.891Z,99094.13
2019-05-16T17:58:08.452Z,99089.30
2019-05-16T18:00:34.584Z,99091.04
2019-05-16T18:03:02.393Z,99091.00
2019-05-16T18:05:30.187Z,99092.45
2019-05-16T18:07:58.022Z,99088.03
2019-05-16T18:10:27.049Z,99093.46
2019-05-16T18:12:56.864Z,99095.00
2019-05-16T18:15:27.555Z,99094.30
2019-05-16T18:17:56.110Z,99094.84
2019-05-16T18:20:26.605Z,99095.33
2019-05-16T18:22:56.798Z,99093.35
2019-05-16T18:25:26.759Z,99096.79
2019-05-16T18:27:54.436Z,99096.39
2019-05-16T18:30:24.394Z,99091.55
2019-05-16T18:32:54.133Z,99089.09
2019-05-16T18:35:21.993Z,99093.36
2019-05-16T18:37:49.853Z,99094.78
2019-05-16T18:40:18.020Z,99090.73
2019-05-16T18:42:47.678Z,99087.66
2019-05-16T18:45:16.525Z,99091.66
2019-05-16T18:47:46.813Z,99090.41
2019-05-16T18:50:17.829Z,99090.61
2019-05-16T18:52:47.068Z,99094.55
2019-05-16T18:55:16.732Z,99089.49
2019-05-16T18:57:47.035Z,99088.91
2019-05-16T19:00:17.916Z,99084.21
2019-05-16T19:02:47.916Z,99084.76
2019-05-16T19:05:17.216Z,99083.90
2019-05-16T19:07:47.506Z,99087.66
2019-05-16T19:10:17.737Z,99086.80
2019-05-16T19:12:51.437Z,99088.34
2019-05-16T19:15:19.733Z,99084.16
2019-05-16T19:17:48.080Z,99079.20
2019-05-16T19:20:17.294Z,99072.79
2019-05-16T19:22:45.713Z,99073.93
2019-05-16T19:25:14.686Z,99069.14
2019-05-16T19:27:43.143Z,99066.80
2019-05-16T19:30:12.412Z,99064.28
2019-05-16T19:32:50.690Z,99060.31
2019-05-16T19:35:18.972Z,99064.60
2019-05-16T19:37:47.224Z,99062.16
2019-05-16T19:40:17.655Z,99059.97
2019-05-16T19:42:47.273Z,99059.62
2019-05-16T19:45:17.084Z,99059.19
2019-05-16T19:47:46.980Z,99056.53
2019-05-16T19:50:15.900Z,99054.80
2019-05-16T19:52:44.134Z,99053.77
2019-05-16T19:55:12.619Z,99052.25
2019-05-16T19:57:40.791Z,99055.20
2019-05-16T20:00:11.380Z,99055.06
2019-05-16T20:02:39.501Z,99056.56
2019-05-16T20:05:09.022Z,99052.76
2019-05-16T20:07:37.388Z,99048.59
2019-05-16T20:10:08.888Z,99047.31
2019-05-16T20:12:37.012Z,99046.76
2019-05-16T20:15:11.715Z,99049.02
2019-05-16T20:17:51.000Z,99050.73
2019-05-16T20:20:08.823Z,99044.89
2019-05-16T20:22:37.894Z,99048.50
2019-05-16T20:25:06.987Z,99048.23
2019-05-16T20:27:36.831Z,99048.45
2019-05-16T20:30:06.670Z,99046.69
2019-05-16T20:32:37.214Z,99038.83
2019-05-16T20:35:08.517Z,99041.30
2019-05-16T20:37:36.759Z,99045.74
2019-05-16T20:40:08.811Z,99044.97
2019-05-16T20:42:41.529Z,99049.09
2019-05-16T20:45:10.552Z,99043.39
2019-05-16T20:47:38.354Z,99040.17
2019-05-16T20:50:07.597Z,99039.01
2019-05-16T20:52:38.294Z,99034.20
2019-05-16T20:55:07.425Z,99044.17
2019-05-16T20:57:37.624Z,99036.86
2019-05-16T21:00:06.746Z,99032.24
2019-05-16T21:02:34.660Z,99036.57
2019-05-16T21:05:02.697Z,99037.28
2019-05-16T21:07:30.518Z,99031.25
2019-05-16T21:09:59.032Z,99029.48
2019-05-16T21:12:27.104Z,99026.03
2019-05-16T21:14:56.681Z,99030.98
2019-05-16T21:17:26.580Z,99030.03
2019-05-16T21:19:54.279Z,99027.78
2019-05-16T21:22:22.074Z,99025.00
2019-05-16T21:24:49.851Z,99025.52
2019-05-16T21:27:19.125Z,99022.42
2019-05-16T21:29:47.243Z,99024.73
2019-05-16T21:32:16.265Z,99019.96
2019-05-16T21:34:44.119Z,99023.72
2019-05-16T21:37:17.075Z,99021.30
2019-05-16T21:39:41.652Z,99022.92
2019-05-16T21:42:09.626Z,99015.09
2019-05-16T21:44:37.599Z,99017.55
2019-05-16T21:47:06.448Z,99019.68
2019-05-16T21:49:36.499Z,99014.92
2019-05-16T21:52:04.312Z,99012.67
2019-05-16T21:54:32.100Z,99011.52
2019-05-16T21:57:02.867Z,99015.81
2019-05-16T21:59:30.651Z,99013.80
2019-05-16T22:01:58.640Z,99014.12
2019-05-16T22:04:26.661Z,99009.19
2019-05-16T22:06:56.547Z,99009.20
2019-05-16T22:09:26.472Z,99004.61
2019-05-16T22:11:57.113Z,99004.81
2019-05-16T22:14:32.301Z,99001.38
2019-05-16T22:17:00.048Z,98994.20
2019-05-16T22:19:27.952Z,98995.79
2019-05-16T22:21:56.427Z,98996.45
2019-05-16T22:24:26.493Z,99000.25
2019-05-16T22:26:54.479Z,98989.43
2019-05-16T22:29:22.284Z,98991.06
2019-05-16T22:31:50.108Z,98987.27
2019-05-16T22:34:17.930Z,98983.37
2019-05-16T22:36:46.221Z,98980.90
2019-05-16T22:39:17.283Z,98979.08
2019-05-16T22:41:46.573Z,98977.43
2019-05-16T22:44:14.566Z,98974.46
2019-05-16T22:46:42.374Z,98979.09
2019-05-16T22:49:10.269Z,98976.84
2019-05-16T22:51:38.066Z,98974.10
2019-05-16T22:54:07.678Z,98969.20
2019-05-16T22:56:37.457Z,98971.34
2019-05-16T22:59:07.222Z,98966.92
2019-05-16T23:01:37.470Z,98960.86
2019-05-16T23:04:04.597Z,98961.65
2019-05-16T23:06:32.371Z,98957.52
2019-05-16T23:09:00.188Z,98956.43
2019-05-16T23:11:28.005Z,98951.98
2019-05-16T23:13:56.809Z,98946.88
2019-05-16T23:16:26.641Z,98950.84
2019-05-16T23:18:54.403Z,98943.02
2019-05-16T23:21:22.216Z,98947.09
2019-05-16T23:23:50.023Z,98945.08
2019-05-16T23:26:17.789Z,98939.77
2019-05-16T23:28:47.209Z,98942.20
2019-05-16T23:31:16.618Z,98939.19
2019-05-16T23:33:59.949Z,98932.18
2019-05-16T23:36:27.765Z,98929.75
2019-05-16T23:38:56.831Z,98926.58
2019-05-16T23:41:27.210Z,98928.11
2019-05-16T23:43:56.214Z,98928.63
2019-05-16T23:46:24.091Z,98921.57
2019-05-16T23:48:51.855Z,98913.91
2019-05-16T23:51:19.643Z,98912.94
2019-05-16T23:53:47.422Z,98907.06
2019-05-16T23:56:16.680Z,98906.71
2019-05-16T23:58:44.607Z,98894.23
